sensor_id;sensor_type;location;lat;lon;timestamp;P1;durP1;ratioP1;P2;durP2;ratioP2
12982;SDS011;6556;51.052;4.498;2022-08-05T00:01:15;2.70;;;1.80;;
12982;SDS011;6556;51.052;4.498;2022-08-05T00:03:41;2.37;;;2.07;;
12982;SDS011;6556;51.052;4.498;2022-08-05T00:06:08;2.77;;;1.80;;
12982;SDS011;6556;51.052;4.498;2022-08-05T00:08:36;4.53;;;2.30;;
12982;SDS011;6556;51.052;4.498;2022-08-05T00:11:04;2.95;;;1.98;;
12982;SDS011;6556;51.052;4.498;2022-08-05T00:13:30;5.13;;;2.70;;
12982;SDS011;6556;51.052;4.498;2022-08-05T00:15:56;3.17;;;1.83;;
12982;SDS011;6556;51.052;4.498;2022-08-05T00:18:23;1.77;;;1.57;;
12982;SDS011;6556;51.052;4.498;2022-08-05T00:20:50;2.42;;;1.83;;
12982;SDS011;6556;51.052;4.498;2022-08-05T00:23:17;2.78;;;1.92;;
12982;SDS011;6556;51.052;4.498;2022-08-05T00:25:44;2.43;;;1.90;;
12982;SDS011;6556;51.052;4.498;2022-08-05T00:28:11;2.17;;;1.50;;
12982;SDS011;6556;51.052;4.498;2022-08-05T00:30:38;1.30;;;1.30;;
12982;SDS011;6556;51.052;4.498;2022-08-05T00:33:05;2.30;;;1.87;;
12982;SDS011;6556;51.052;4.498;2022-08-05T00:35:32;2.47;;;1.80;;
12982;SDS011;6556;51.052;4.498;2022-08-05T00:37:59;2.90;;;1.90;;
12982;SDS011;6556;51.052;4.498;2022-08-05T00:40:26;3.85;;;2.10;;
12982;SDS011;6556;51.052;4.498;2022-08-05T00:42:53;3.37;;;2.10;;
12982;SDS011;6556;51.052;4.498;2022-08-05T00:45:19;2.97;;;1.60;;
12982;SDS011;6556;51.052;4.498;2022-08-05T00:47:46;2.40;;;1.90;;
12982;SDS011;6556;51.052;4.498;2022-08-05T00:50:13;2.73;;;1.63;;
12982;SDS011;6556;51.052;4.498;2022-08-05T00:52:40;2.23;;;1.50;;
12982;SDS011;6556;51.052;4.498;2022-08-05T00:55:07;1.40;;;1.30;;
12982;SDS011;6556;51.052;4.498;2022-08-05T00:57:34;2.70;;;1.95;;
12982;SDS011;6556;51.052;4.498;2022-08-05T01:00:01;3.07;;;1.70;;
12982;SDS011;6556;51.052;4.498;2022-08-05T01:02:28;3.30;;;1.77;;
12982;SDS011;6556;51.052;4.498;2022-08-05T01:04:55;4.00;;;1.37;;
12982;SDS011;6556;51.052;4.498;2022-08-05T01:07:22;4.73;;;1.83;;
12982;SDS011;6556;51.052;4.498;2022-08-05T01:09:49;1.30;;;1.20;;
12982;SDS011;6556;51.052;4.498;2022-08-05T01:12:16;3.95;;;2.10;;
12982;SDS011;6556;51.052;4.498;2022-08-05T01:14:56;3.00;;;1.67;;
12982;SDS011;6556;51.052;4.498;2022-08-05T01:30:40;2.97;;;1.80;;
12982;SDS011;6556;51.052;4.498;2022-08-05T01:33:06;2.80;;;1.97;;
12982;SDS011;6556;51.052;4.498;2022-08-05T01:35:33;1.60;;;1.50;;
12982;SDS011;6556;51.052;4.498;2022-08-05T01:38:00;2.97;;;2.20;;
12982;SDS011;6556;51.052;4.498;2022-08-05T01:40:28;3.92;;;2.10;;
12982;SDS011;6556;51.052;4.498;2022-08-05T01:42:54;3.13;;;2.00;;
12982;SDS011;6556;51.052;4.498;2022-08-05T01:45:21;2.20;;;1.60;;
12982;SDS011;6556;51.052;4.498;2022-08-05T01:47:48;2.33;;;1.60;;
12982;SDS011;6556;51.052;4.498;2022-08-05T01:50:26;2.53;;;1.60;;
12982;SDS011;6556;51.052;4.498;2022-08-05T01:52:48;4.28;;;2.40;;
12982;SDS011;6556;51.052;4.498;2022-08-05T01:55:15;6.35;;;2.50;;
12982;SDS011;6556;51.052;4.498;2022-08-05T01:57:42;3.10;;;1.92;;
12982;SDS011;6556;51.052;4.498;2022-08-05T02:00:08;3.60;;;1.83;;
12982;SDS011;6556;51.052;4.498;2022-08-05T02:02:36;3.70;;;1.83;;
12982;SDS011;6556;51.052;4.498;2022-08-05T02:05:03;3.10;;;1.60;;
12982;SDS011;6556;51.052;4.498;2022-08-05T02:07:30;1.97;;;1.50;;
12982;SDS011;6556;51.052;4.498;2022-08-05T02:09:56;3.22;;;2.10;;
12982;SDS011;6556;51.052;4.498;2022-08-05T02:17:50;5.15;;;2.10;;
12982;SDS011;6556;51.052;4.498;2022-08-05T02:20:10;3.47;;;1.93;;
12982;SDS011;6556;51.052;4.498;2022-08-05T02:22:42;1.83;;;1.73;;
12982;SDS011;6556;51.052;4.498;2022-08-05T02:25:05;4.43;;;1.90;;
12982;SDS011;6556;51.052;4.498;2022-08-05T02:27:32;3.20;;;2.40;;
12982;SDS011;6556;51.052;4.498;2022-08-05T02:29:58;2.93;;;1.77;;
12982;SDS011;6556;51.052;4.498;2022-08-05T02:32:25;1.77;;;1.50;;
12982;SDS011;6556;51.052;4.498;2022-08-05T02:34:52;6.23;;;2.13;;
12982;SDS011;6556;51.052;4.498;2022-08-05T02:37:19;3.03;;;2.05;;
12982;SDS011;6556;51.052;4.498;2022-08-05T02:39:46;2.77;;;2.03;;
12982;SDS011;6556;51.052;4.498;2022-08-05T02:42:13;3.00;;;1.93;;
12982;SDS011;6556;51.052;4.498;2022-08-05T02:44:40;3.53;;;1.67;;
12982;SDS011;6556;51.052;4.498;2022-08-05T02:47:07;4.20;;;2.23;;
12982;SDS011;6556;51.052;4.498;2022-08-05T02:49:35;2.83;;;1.70;;
12982;SDS011;6556;51.052;4.498;2022-08-05T02:52:01;4.37;;;1.93;;
12982;SDS011;6556;51.052;4.498;2022-08-05T02:54:27;6.87;;;2.67;;
12982;SDS011;6556;51.052;4.498;2022-08-05T02:56:54;5.22;;;2.40;;
12982;SDS011;6556;51.052;4.498;2022-08-05T02:59:21;4.10;;;2.60;;
12982;SDS011;6556;51.052;4.498;2022-08-05T03:01:48;2.57;;;1.80;;
12982;SDS011;6556;51.052;4.498;2022-08-05T03:04:15;3.73;;;2.10;;
12982;SDS011;6556;51.052;4.498;2022-08-05T03:06:42;5.37;;;2.00;;
12982;SDS011;6556;51.052;4.498;2022-08-05T03:09:12;2.53;;;1.57;;
12982;SDS011;6556;51.052;4.498;2022-08-05T03:11:42;2.17;;;1.90;;
12982;SDS011;6556;51.052;4.498;2022-08-05T03:14:06;3.67;;;2.27;;
12982;SDS011;6556;51.052;4.498;2022-08-05T03:16:33;3.17;;;1.80;;
12982;SDS011;6556;51.052;4.498;2022-08-05T03:19:00;2.77;;;1.93;;
12982;SDS011;6556;51.052;4.498;2022-08-05T03:21:27;3.23;;;2.33;;
12982;SDS011;6556;51.052;4.498;2022-08-05T03:23:54;2.90;;;1.57;;
12982;SDS011;6556;51.052;4.498;2022-08-05T03:26:21;4.50;;;2.43;;
12982;SDS011;6556;51.052;4.498;2022-08-05T03:28:47;4.10;;;2.20;;
12982;SDS011;6556;51.052;4.498;2022-08-05T03:31:14;3.73;;;2.10;;
12982;SDS011;6556;51.052;4.498;2022-08-05T03:33:41;3.43;;;2.27;;
12982;SDS011;6556;51.052;4.498;2022-08-05T03:36:08;6.60;;;2.40;;
12982;SDS011;6556;51.052;4.498;2022-08-05T03:38:39;3.03;;;1.97;;
12982;SDS011;6556;51.052;4.498;2022-08-05T03:41:05;2.47;;;1.73;;
12982;SDS011;6556;51.052;4.498;2022-08-05T03:43:32;2.73;;;1.67;;
12982;SDS011;6556;51.052;4.498;2022-08-05T03:45:59;5.80;;;1.77;;
12982;SDS011;6556;51.052;4.498;2022-08-05T03:48:26;2.67;;;2.03;;
12982;SDS011;6556;51.052;4.498;2022-08-05T03:50:57;2.00;;;1.60;;
12982;SDS011;6556;51.052;4.498;2022-08-05T03:55:56;2.57;;;1.50;;
12982;SDS011;6556;51.052;4.498;2022-08-05T03:58:19;7.63;;;1.90;;
12982;SDS011;6556;51.052;4.498;2022-08-05T04:00:46;3.17;;;2.20;;
12982;SDS011;6556;51.052;4.498;2022-08-05T04:03:13;4.03;;;2.58;;
12982;SDS011;6556;51.052;4.498;2022-08-05T04:05:40;4.28;;;2.45;;
12982;SDS011;6556;51.052;4.498;2022-08-05T04:08:08;4.07;;;1.93;;
12982;SDS011;6556;51.052;4.498;2022-08-05T04:10:34;4.23;;;1.70;;
12982;SDS011;6556;51.052;4.498;2022-08-05T04:13:01;2.00;;;1.57;;
12982;SDS011;6556;51.052;4.498;2022-08-05T04:15:28;4.77;;;2.63;;
12982;SDS011;6556;51.052;4.498;2022-08-05T04:17:55;2.13;;;1.47;;
12982;SDS011;6556;51.052;4.498;2022-08-05T04:20:22;3.53;;;2.10;;
12982;SDS011;6556;51.052;4.498;2022-08-05T04:22:49;2.57;;;1.67;;
12982;SDS011;6556;51.052;4.498;2022-08-05T04:25:16;2.80;;;1.93;;
12982;SDS011;6556;51.052;4.498;2022-08-05T04:27:43;3.30;;;1.90;;
12982;SDS011;6556;51.052;4.498;2022-08-05T04:30:10;2.17;;;1.67;;
12982;SDS011;6556;51.052;4.498;2022-08-05T04:32:37;1.87;;;1.73;;
12982;SDS011;6556;51.052;4.498;2022-08-05T04:35:04;5.10;;;2.67;;
12982;SDS011;6556;51.052;4.498;2022-08-05T04:37:30;3.70;;;2.30;;
12982;SDS011;6556;51.052;4.498;2022-08-05T04:39:57;7.43;;;3.20;;
12982;SDS011;6556;51.052;4.498;2022-08-05T04:42:24;4.45;;;2.58;;
12982;SDS011;6556;51.052;4.498;2022-08-05T04:44:51;3.30;;;2.37;;
12982;SDS011;6556;51.052;4.498;2022-08-05T04:47:18;7.00;;;3.07;;
12982;SDS011;6556;51.052;4.498;2022-08-05T04:49:45;2.87;;;2.07;;
12982;SDS011;6556;51.052;4.498;2022-08-05T04:52:12;4.13;;;1.80;;
12982;SDS011;6556;51.052;4.498;2022-08-05T04:54:39;2.43;;;1.67;;
12982;SDS011;6556;51.052;4.498;2022-08-05T04:57:06;5.50;;;2.30;;
12982;SDS011;6556;51.052;4.498;2022-08-05T04:59:33;2.90;;;2.13;;
12982;SDS011;6556;51.052;4.498;2022-08-05T05:02:00;3.77;;;2.30;;
12982;SDS011;6556;51.052;4.498;2022-08-05T05:04:27;3.57;;;2.17;;
12982;SDS011;6556;51.052;4.498;2022-08-05T05:06:54;3.10;;;2.17;;
12982;SDS011;6556;51.052;4.498;2022-08-05T05:09:21;1.77;;;1.67;;
12982;SDS011;6556;51.052;4.498;2022-08-05T05:11:47;2.43;;;1.70;;
12982;SDS011;6556;51.052;4.498;2022-08-05T05:14:14;2.80;;;2.13;;
12982;SDS011;6556;51.052;4.498;2022-08-05T05:16:42;4.60;;;3.33;;
12982;SDS011;6556;51.052;4.498;2022-08-05T05:19:08;3.03;;;1.90;;
12982;SDS011;6556;51.052;4.498;2022-08-05T05:21:35;2.97;;;2.13;;
12982;SDS011;6556;51.052;4.498;2022-08-05T05:24:02;2.53;;;1.83;;
12982;SDS011;6556;51.052;4.498;2022-08-05T05:26:29;2.93;;;2.00;;
12982;SDS011;6556;51.052;4.498;2022-08-05T05:28:56;3.27;;;2.17;;
12982;SDS011;6556;51.052;4.498;2022-08-05T05:31:23;5.47;;;2.23;;
12982;SDS011;6556;51.052;4.498;2022-08-05T05:33:50;3.40;;;2.23;;
12982;SDS011;6556;51.052;4.498;2022-08-05T05:36:17;4.12;;;2.42;;
12982;SDS011;6556;51.052;4.498;2022-08-05T05:38:44;3.80;;;2.40;;
12982;SDS011;6556;51.052;4.498;2022-08-05T05:41:11;3.97;;;2.20;;
12982;SDS011;6556;51.052;4.498;2022-08-05T05:43:38;2.50;;;2.17;;
12982;SDS011;6556;51.052;4.498;2022-08-05T05:46:05;3.27;;;2.10;;
12982;SDS011;6556;51.052;4.498;2022-08-05T05:48:32;2.90;;;2.00;;
12982;SDS011;6556;51.052;4.498;2022-08-05T05:50:59;1.80;;;1.70;;
12982;SDS011;6556;51.052;4.498;2022-08-05T05:53:26;4.30;;;2.17;;
12982;SDS011;6556;51.052;4.498;2022-08-05T05:55:53;2.77;;;2.30;;
12982;SDS011;6556;51.052;4.498;2022-08-05T05:58:19;4.63;;;2.50;;
12982;SDS011;6556;51.052;4.498;2022-08-05T06:00:46;3.27;;;1.83;;
12982;SDS011;6556;51.052;4.498;2022-08-05T06:03:13;3.87;;;2.27;;
12982;SDS011;6556;51.052;4.498;2022-08-05T06:05:40;3.87;;;2.37;;
12982;SDS011;6556;51.052;4.498;2022-08-05T06:08:07;3.90;;;2.60;;
12982;SDS011;6556;51.052;4.498;2022-08-05T06:10:34;3.80;;;2.53;;
12982;SDS011;6556;51.052;4.498;2022-08-05T06:13:01;4.67;;;2.30;;
12982;SDS011;6556;51.052;4.498;2022-08-05T06:15:28;5.57;;;2.58;;
12982;SDS011;6556;51.052;4.498;2022-08-05T06:17:55;4.57;;;2.20;;
12982;SDS011;6556;51.052;4.498;2022-08-05T06:20:22;4.20;;;2.60;;
12982;SDS011;6556;51.052;4.498;2022-08-05T06:22:49;3.60;;;2.00;;
12982;SDS011;6556;51.052;4.498;2022-08-05T06:25:16;3.00;;;2.10;;
12982;SDS011;6556;51.052;4.498;2022-08-05T06:27:43;3.30;;;2.30;;
12982;SDS011;6556;51.052;4.498;2022-08-05T06:30:10;6.55;;;2.97;;
12982;SDS011;6556;51.052;4.498;2022-08-05T06:32:37;1.70;;;1.60;;
12982;SDS011;6556;51.052;4.498;2022-08-05T06:35:04;2.03;;;1.80;;
12982;SDS011;6556;51.052;4.498;2022-08-05T06:37:30;2.93;;;1.80;;
12982;SDS011;6556;51.052;4.498;2022-08-05T06:39:57;3.20;;;2.13;;
12982;SDS011;6556;51.052;4.498;2022-08-05T06:42:24;3.87;;;2.17;;
12982;SDS011;6556;51.052;4.498;2022-08-05T06:44:51;2.60;;;1.70;;
12982;SDS011;6556;51.052;4.498;2022-08-05T06:47:18;4.93;;;2.83;;
12982;SDS011;6556;51.052;4.498;2022-08-05T06:49:45;2.47;;;2.07;;
12982;SDS011;6556;51.052;4.498;2022-08-05T06:52:12;2.40;;;1.93;;
12982;SDS011;6556;51.052;4.498;2022-08-05T06:54:39;2.30;;;1.93;;
12982;SDS011;6556;51.052;4.498;2022-08-05T06:57:06;4.97;;;1.80;;
12982;SDS011;6556;51.052;4.498;2022-08-05T06:59:33;3.30;;;2.23;;
12982;SDS011;6556;51.052;4.498;2022-08-05T07:02:00;4.07;;;2.33;;
12982;SDS011;6556;51.052;4.498;2022-08-05T07:04:27;1.60;;;1.40;;
12982;SDS011;6556;51.052;4.498;2022-08-05T07:06:54;3.62;;;2.15;;
12982;SDS011;6556;51.052;4.498;2022-08-05T07:09:21;3.03;;;2.00;;
12982;SDS011;6556;51.052;4.498;2022-08-05T07:11:48;2.17;;;1.93;;
12982;SDS011;6556;51.052;4.498;2022-08-05T07:14:15;3.47;;;1.90;;
12982;SDS011;6556;51.052;4.498;2022-08-05T07:16:59;2.37;;;1.90;;
12982;SDS011;6556;51.052;4.498;2022-08-05T07:19:26;1.97;;;1.87;;
12982;SDS011;6556;51.052;4.498;2022-08-05T07:21:53;3.93;;;1.80;;
12982;SDS011;6556;51.052;4.498;2022-08-05T07:24:20;1.90;;;1.70;;
12982;SDS011;6556;51.052;4.498;2022-08-05T07:26:47;1.43;;;1.33;;
12982;SDS011;6556;51.052;4.498;2022-08-05T07:29:14;1.67;;;1.57;;
12982;SDS011;6556;51.052;4.498;2022-08-05T07:31:41;2.60;;;1.80;;
12982;SDS011;6556;51.052;4.498;2022-08-05T07:34:08;2.07;;;1.63;;
12982;SDS011;6556;51.052;4.498;2022-08-05T07:36:35;2.50;;;1.43;;
12982;SDS011;6556;51.052;4.498;2022-08-05T07:39:03;2.42;;;1.90;;
12982;SDS011;6556;51.052;4.498;2022-08-05T07:41:29;2.40;;;2.20;;
12982;SDS011;6556;51.052;4.498;2022-08-05T07:43:56;3.67;;;1.57;;
12982;SDS011;6556;51.052;4.498;2022-08-05T07:46:27;1.63;;;1.50;;
12982;SDS011;6556;51.052;4.498;2022-08-05T07:48:49;1.40;;;1.30;;
12982;SDS011;6556;51.052;4.498;2022-08-05T07:51:16;1.57;;;1.47;;
12982;SDS011;6556;51.052;4.498;2022-08-05T07:53:43;2.03;;;1.80;;
12982;SDS011;6556;51.052;4.498;2022-08-05T07:56:10;1.87;;;1.70;;
12982;SDS011;6556;51.052;4.498;2022-08-05T07:58:37;1.50;;;1.23;;
12982;SDS011;6556;51.052;4.498;2022-08-05T08:01:05;4.30;;;1.80;;
12982;SDS011;6556;51.052;4.498;2022-08-05T08:03:31;2.17;;;1.80;;
12982;SDS011;6556;51.052;4.498;2022-08-05T08:05:58;2.07;;;1.70;;
12982;SDS011;6556;51.052;4.498;2022-08-05T08:08:25;1.77;;;1.63;;
12982;SDS011;6556;51.052;4.498;2022-08-05T08:10:52;2.33;;;1.60;;
12982;SDS011;6556;51.052;4.498;2022-08-05T08:13:19;2.27;;;1.50;;
12982;SDS011;6556;51.052;4.498;2022-08-05T08:15:46;2.00;;;1.63;;
12982;SDS011;6556;51.052;4.498;2022-08-05T08:18:13;1.90;;;1.70;;
12982;SDS011;6556;51.052;4.498;2022-08-05T08:20:40;2.37;;;1.87;;
12982;SDS011;6556;51.052;4.498;2022-08-05T08:23:07;1.47;;;1.37;;
12982;SDS011;6556;51.052;4.498;2022-08-05T08:25:34;2.13;;;1.57;;
12982;SDS011;6556;51.052;4.498;2022-08-05T08:28:00;1.57;;;1.47;;
12982;SDS011;6556;51.052;4.498;2022-08-05T08:30:27;1.53;;;1.33;;
12982;SDS011;6556;51.052;4.498;2022-08-05T08:32:54;1.67;;;1.57;;
12982;SDS011;6556;51.052;4.498;2022-08-05T08:35:21;1.20;;;1.10;;
12982;SDS011;6556;51.052;4.498;2022-08-05T08:37:48;2.28;;;1.60;;
12982;SDS011;6556;51.052;4.498;2022-08-05T08:40:15;2.45;;;1.60;;
12982;SDS011;6556;51.052;4.498;2022-08-05T08:42:44;1.50;;;1.40;;
12982;SDS011;6556;51.052;4.498;2022-08-05T08:45:09;1.87;;;1.40;;
12982;SDS011;6556;51.052;4.498;2022-08-05T08:47:36;4.43;;;1.43;;
12982;SDS011;6556;51.052;4.498;2022-08-05T08:50:03;8.47;;;1.27;;
12982;SDS011;6556;51.052;4.498;2022-08-05T08:52:31;1.93;;;1.43;;
12982;SDS011;6556;51.052;4.498;2022-08-05T08:54:57;1.30;;;1.20;;
12982;SDS011;6556;51.052;4.498;2022-08-05T08:57:24;1.27;;;1.23;;
12982;SDS011;6556;51.052;4.498;2022-08-05T08:59:51;2.03;;;1.60;;
12982;SDS011;6556;51.052;4.498;2022-08-05T09:02:18;1.60;;;1.50;;
12982;SDS011;6556;51.052;4.498;2022-08-05T09:04:45;1.40;;;1.20;;
12982;SDS011;6556;51.052;4.498;2022-08-05T09:07:12;2.07;;;1.70;;
12982;SDS011;6556;51.052;4.498;2022-08-05T09:09:38;1.20;;;1.10;;
12982;SDS011;6556;51.052;4.498;2022-08-05T09:12:08;0.83;;;0.83;;
12982;SDS011;6556;51.052;4.498;2022-08-05T09:14:35;1.48;;;1.33;;
12982;SDS011;6556;51.052;4.498;2022-08-05T09:17:06;1.37;;;1.27;;
12982;SDS011;6556;51.052;4.498;2022-08-05T09:19:32;1.30;;;1.20;;
12982;SDS011;6556;51.052;4.498;2022-08-05T09:21:59;1.23;;;1.13;;
12982;SDS011;6556;51.052;4.498;2022-08-05T09:24:26;1.83;;;1.40;;
12982;SDS011;6556;51.052;4.498;2022-08-05T09:26:54;2.23;;;1.40;;
12982;SDS011;6556;51.052;4.498;2022-08-05T09:29:20;1.73;;;1.63;;
12982;SDS011;6556;51.052;4.498;2022-08-05T09:32:03;1.57;;;1.47;;
12982;SDS011;6556;51.052;4.498;2022-08-05T09:34:44;1.50;;;1.40;;
12982;SDS011;6556;51.052;4.498;2022-08-05T09:36:56;1.30;;;1.20;;
12982;SDS011;6556;51.052;4.498;2022-08-05T09:39:23;1.17;;;1.13;;
12982;SDS011;6556;51.052;4.498;2022-08-05T09:42:09;1.03;;;1.03;;
12982;SDS011;6556;51.052;4.498;2022-08-05T09:44:32;1.50;;;1.40;;
12982;SDS011;6556;51.052;4.498;2022-08-05T09:49:35;1.93;;;1.70;;
12982;SDS011;6556;51.052;4.498;2022-08-05T09:52:15;2.53;;;1.80;;
12982;SDS011;6556;51.052;4.498;2022-08-05T09:54:30;2.10;;;1.40;;
12982;SDS011;6556;51.052;4.498;2022-08-05T09:56:57;1.40;;;1.30;;
12982;SDS011;6556;51.052;4.498;2022-08-05T09:59:24;2.50;;;1.67;;
12982;SDS011;6556;51.052;4.498;2022-08-05T10:01:51;3.87;;;2.27;;
12982;SDS011;6556;51.052;4.498;2022-08-05T10:04:18;2.73;;;1.90;;
12982;SDS011;6556;51.052;4.498;2022-08-05T10:06:52;2.07;;;1.87;;
12982;SDS011;6556;51.052;4.498;2022-08-05T10:09:21;2.83;;;1.90;;
12982;SDS011;6556;51.052;4.498;2022-08-05T10:11:48;4.70;;;1.73;;
12982;SDS011;6556;51.052;4.498;2022-08-05T10:14:30;2.10;;;1.90;;
12982;SDS011;6556;51.052;4.498;2022-08-05T10:17:10;2.10;;;1.87;;
12982;SDS011;6556;51.052;4.498;2022-08-05T10:19:24;3.67;;;2.20;;
12982;SDS011;6556;51.052;4.498;2022-08-05T10:21:51;1.90;;;1.67;;
12982;SDS011;6556;51.052;4.498;2022-08-05T10:24:18;1.50;;;1.40;;
12982;SDS011;6556;51.052;4.498;2022-08-05T10:26:46;2.23;;;1.80;;
12982;SDS011;6556;51.052;4.498;2022-08-05T10:29:12;2.00;;;1.80;;
12982;SDS011;6556;51.052;4.498;2022-08-05T10:31:39;4.37;;;1.70;;
12982;SDS011;6556;51.052;4.498;2022-08-05T10:34:06;2.87;;;1.20;;
12982;SDS011;6556;51.052;4.498;2022-08-05T10:36:34;1.17;;;1.07;;
12982;SDS011;6556;51.052;4.498;2022-08-05T10:39:01;1.77;;;1.57;;
12982;SDS011;6556;51.052;4.498;2022-08-05T10:41:30;2.50;;;1.60;;
12982;SDS011;6556;51.052;4.498;2022-08-05T10:43:57;1.37;;;1.27;;
12982;SDS011;6556;51.052;4.498;2022-08-05T10:46:23;1.37;;;1.27;;
12982;SDS011;6556;51.052;4.498;2022-08-05T10:48:56;1.30;;;1.20;;
12982;SDS011;6556;51.052;4.498;2022-08-05T10:51:23;1.40;;;1.30;;
12982;SDS011;6556;51.052;4.498;2022-08-05T10:56:18;1.37;;;1.30;;
12982;SDS011;6556;51.052;4.498;2022-08-05T11:01:35;1.20;;;1.20;;
12982;SDS011;6556;51.052;4.498;2022-08-05T11:06:31;1.43;;;1.27;;
12982;SDS011;6556;51.052;4.498;2022-08-05T11:11:37;1.20;;;1.20;;
12982;SDS011;6556;51.052;4.498;2022-08-05T11:14:04;1.20;;;1.20;;
12982;SDS011;6556;51.052;4.498;2022-08-05T11:16:31;1.40;;;1.30;;
12982;SDS011;6556;51.052;4.498;2022-08-05T11:21:49;1.10;;;1.10;;
12982;SDS011;6556;51.052;4.498;2022-08-05T11:24:16;1.37;;;1.27;;
12982;SDS011;6556;51.052;4.498;2022-08-05T11:26:43;1.50;;;1.40;;
12982;SDS011;6556;51.052;4.498;2022-08-05T11:29:32;1.37;;;1.27;;
12982;SDS011;6556;51.052;4.498;2022-08-05T11:31:37;1.67;;;1.03;;
12982;SDS011;6556;51.052;4.498;2022-08-05T11:34:05;1.17;;;1.07;;
12982;SDS011;6556;51.052;4.498;2022-08-05T11:36:38;2.57;;;1.40;;
12982;SDS011;6556;51.052;4.498;2022-08-05T11:39:07;1.20;;;1.10;;
12982;SDS011;6556;51.052;4.498;2022-08-05T11:41:34;2.33;;;1.00;;
12982;SDS011;6556;51.052;4.498;2022-08-05T11:44:04;1.00;;;0.97;;
12982;SDS011;6556;51.052;4.498;2022-08-05T11:46:41;1.30;;;1.20;;
12982;SDS011;6556;51.052;4.498;2022-08-05T11:49:07;1.03;;;0.97;;
12982;SDS011;6556;51.052;4.498;2022-08-05T11:51:34;1.17;;;1.07;;
12982;SDS011;6556;51.052;4.498;2022-08-05T11:54:01;2.03;;;1.17;;
12982;SDS011;6556;51.052;4.498;2022-08-05T11:59:17;2.10;;;1.40;;
12982;SDS011;6556;51.052;4.498;2022-08-05T12:01:56;4.67;;;1.00;;
12982;SDS011;6556;51.052;4.498;2022-08-05T12:04:22;1.13;;;1.13;;
12982;SDS011;6556;51.052;4.498;2022-08-05T12:06:49;2.37;;;1.17;;
12982;SDS011;6556;51.052;4.498;2022-08-05T12:09:25;1.70;;;1.50;;
12982;SDS011;6556;51.052;4.498;2022-08-05T12:11:52;1.53;;;1.20;;
12982;SDS011;6556;51.052;4.498;2022-08-05T12:14:18;1.97;;;1.40;;
12982;SDS011;6556;51.052;4.498;2022-08-05T12:16:45;1.23;;;1.20;;
12982;SDS011;6556;51.052;4.498;2022-08-05T12:19:13;1.60;;;1.27;;
12982;SDS011;6556;51.052;4.498;2022-08-05T12:21:43;1.03;;;1.03;;
12982;SDS011;6556;51.052;4.498;2022-08-05T12:24:10;1.30;;;1.20;;
12982;SDS011;6556;51.052;4.498;2022-08-05T12:26:40;1.03;;;1.03;;
12982;SDS011;6556;51.052;4.498;2022-08-05T12:29:07;1.23;;;1.03;;
12982;SDS011;6556;51.052;4.498;2022-08-05T12:31:33;1.50;;;1.30;;
12982;SDS011;6556;51.052;4.498;2022-08-05T12:34:00;1.13;;;1.03;;
12982;SDS011;6556;51.052;4.498;2022-08-05T12:36:27;1.98;;;1.05;;
12982;SDS011;6556;51.052;4.498;2022-08-05T12:38:55;1.50;;;1.25;;
12982;SDS011;6556;51.052;4.498;2022-08-05T12:41:20;0.70;;;0.70;;
12982;SDS011;6556;51.052;4.498;2022-08-05T12:43:52;1.07;;;1.03;;
12982;SDS011;6556;51.052;4.498;2022-08-05T12:46:25;0.87;;;0.87;;
12982;SDS011;6556;51.052;4.498;2022-08-05T12:48:55;0.70;;;0.70;;
12982;SDS011;6556;51.052;4.498;2022-08-05T12:51:14;0.83;;;0.83;;
12982;SDS011;6556;51.052;4.498;2022-08-05T12:53:44;0.70;;;0.70;;
12982;SDS011;6556;51.052;4.498;2022-08-05T12:56:15;2.10;;;0.93;;
12982;SDS011;6556;51.052;4.498;2022-08-05T12:58:44;0.70;;;0.70;;
12982;SDS011;6556;51.052;4.498;2022-08-05T13:01:12;0.70;;;0.70;;
12982;SDS011;6556;51.052;4.498;2022-08-05T13:03:38;0.80;;;0.80;;
12982;SDS011;6556;51.052;4.498;2022-08-05T13:06:08;1.20;;;0.80;;
12982;SDS011;6556;51.052;4.498;2022-08-05T13:08:36;0.50;;;0.50;;
12982;SDS011;6556;51.052;4.498;2022-08-05T13:11:02;0.70;;;0.70;;
12982;SDS011;6556;51.052;4.498;2022-08-05T13:13:29;0.80;;;0.80;;
12982;SDS011;6556;51.052;4.498;2022-08-05T13:15:55;0.67;;;0.67;;
12982;SDS011;6556;51.052;4.498;2022-08-05T13:18:22;0.67;;;0.67;;
12982;SDS011;6556;51.052;4.498;2022-08-05T13:20:49;0.80;;;0.80;;
12982;SDS011;6556;51.052;4.498;2022-08-05T13:23:16;0.90;;;0.90;;
12982;SDS011;6556;51.052;4.498;2022-08-05T13:25:43;0.90;;;0.90;;
12982;SDS011;6556;51.052;4.498;2022-08-05T13:28:10;1.35;;;1.25;;
12982;SDS011;6556;51.052;4.498;2022-08-05T13:30:37;0.63;;;0.63;;
12982;SDS011;6556;51.052;4.498;2022-08-05T13:33:04;0.60;;;0.60;;
12982;SDS011;6556;51.052;4.498;2022-08-05T13:35:31;0.90;;;0.90;;
12982;SDS011;6556;51.052;4.498;2022-08-05T13:37:58;0.73;;;0.73;;
12982;SDS011;6556;51.052;4.498;2022-08-05T13:40:25;0.80;;;0.80;;
12982;SDS011;6556;51.052;4.498;2022-08-05T13:42:52;1.08;;;1.08;;
12982;SDS011;6556;51.052;4.498;2022-08-05T13:45:19;1.00;;;1.00;;
12982;SDS011;6556;51.052;4.498;2022-08-05T13:47:46;0.90;;;0.90;;
12982;SDS011;6556;51.052;4.498;2022-08-05T13:50:13;0.80;;;0.80;;
12982;SDS011;6556;51.052;4.498;2022-08-05T13:52:40;0.90;;;0.90;;
12982;SDS011;6556;51.052;4.498;2022-08-05T13:55:06;0.70;;;0.70;;
12982;SDS011;6556;51.052;4.498;2022-08-05T13:57:33;2.20;;;0.70;;
12982;SDS011;6556;51.052;4.498;2022-08-05T14:00:00;0.90;;;0.90;;
12982;SDS011;6556;51.052;4.498;2022-08-05T14:02:27;1.00;;;1.00;;
12982;SDS011;6556;51.052;4.498;2022-08-05T14:04:54;0.77;;;0.77;;
12982;SDS011;6556;51.052;4.498;2022-08-05T14:07:38;0.87;;;0.87;;
12982;SDS011;6556;51.052;4.498;2022-08-05T14:10:07;0.87;;;0.87;;
12982;SDS011;6556;51.052;4.498;2022-08-05T14:12:33;0.80;;;0.80;;
12982;SDS011;6556;51.052;4.498;2022-08-05T14:15:00;0.80;;;0.80;;
12982;SDS011;6556;51.052;4.498;2022-08-05T14:17:27;0.90;;;0.90;;
12982;SDS011;6556;51.052;4.498;2022-08-05T14:19:54;0.90;;;0.90;;
12982;SDS011;6556;51.052;4.498;2022-08-05T14:22:21;0.53;;;0.53;;
12982;SDS011;6556;51.052;4.498;2022-08-05T14:24:48;0.73;;;0.73;;
12982;SDS011;6556;51.052;4.498;2022-08-05T14:27:15;1.30;;;0.98;;
12982;SDS011;6556;51.052;4.498;2022-08-05T14:29:42;0.80;;;0.80;;
12982;SDS011;6556;51.052;4.498;2022-08-05T14:32:09;1.07;;;1.07;;
12982;SDS011;6556;51.052;4.498;2022-08-05T14:34:36;0.97;;;0.77;;
12982;SDS011;6556;51.052;4.498;2022-08-05T14:37:03;1.00;;;1.00;;
12982;SDS011;6556;51.052;4.498;2022-08-05T14:39:30;1.53;;;1.10;;
12982;SDS011;6556;51.052;4.498;2022-08-05T14:41:59;0.70;;;0.70;;
12982;SDS011;6556;51.052;4.498;2022-08-05T14:44:26;0.67;;;0.67;;
12982;SDS011;6556;51.052;4.498;2022-08-05T14:46:53;0.90;;;0.90;;
12982;SDS011;6556;51.052;4.498;2022-08-05T14:49:20;0.67;;;0.67;;
12982;SDS011;6556;51.052;4.498;2022-08-05T14:51:47;2.53;;;1.13;;
12982;SDS011;6556;51.052;4.498;2022-08-05T14:54:14;0.90;;;0.90;;
12982;SDS011;6556;51.052;4.498;2022-08-05T14:56:41;1.02;;;1.00;;
12982;SDS011;6556;51.052;4.498;2022-08-05T14:59:08;2.33;;;1.17;;
12982;SDS011;6556;51.052;4.498;2022-08-05T15:01:35;1.00;;;1.00;;
12982;SDS011;6556;51.052;4.498;2022-08-05T15:04:02;0.80;;;0.80;;
12982;SDS011;6556;51.052;4.498;2022-08-05T15:06:29;0.80;;;0.80;;
12982;SDS011;6556;51.052;4.498;2022-08-05T15:08:56;0.87;;;0.87;;
12982;SDS011;6556;51.052;4.498;2022-08-05T15:11:23;0.83;;;0.83;;
12982;SDS011;6556;51.052;4.498;2022-08-05T15:13:50;2.20;;;1.00;;
12982;SDS011;6556;51.052;4.498;2022-08-05T15:16:16;1.03;;;0.93;;
12982;SDS011;6556;51.052;4.498;2022-08-05T15:18:43;0.83;;;0.83;;
12982;SDS011;6556;51.052;4.498;2022-08-05T15:21:10;1.10;;;1.10;;
12982;SDS011;6556;51.052;4.498;2022-08-05T15:23:37;0.83;;;0.83;;
12982;SDS011;6556;51.052;4.498;2022-08-05T15:26:04;0.98;;;0.98;;
12982;SDS011;6556;51.052;4.498;2022-08-05T15:28:31;0.80;;;0.80;;
12982;SDS011;6556;51.052;4.498;2022-08-05T15:30:58;0.90;;;0.90;;
12982;SDS011;6556;51.052;4.498;2022-08-05T15:33:25;0.80;;;0.80;;
12982;SDS011;6556;51.052;4.498;2022-08-05T15:35:52;2.00;;;0.90;;
12982;SDS011;6556;51.052;4.498;2022-08-05T15:38:19;1.00;;;0.97;;
12982;SDS011;6556;51.052;4.498;2022-08-05T15:40:46;0.70;;;0.70;;